Tropical Cyclones
[Index]
Main Index Home Page Stock Weather Photos Extreme Storms Discussion Storm News and Storm Chasing Reports Tropical Cyclones / Hurricanes / Typhoons Weather Data and Links Wild Fires / Bushfires Weather Observation Techniques Weather Picture Catalogue Tornado Pictures and Reports Stock Video Footage and DVDs for sale
Season 1991-1992 Tropical Cyclone FARIDA Track Map
Season 1991-1992 Summaries: [BoM-AU] [JTWC-AU] [JTWC-SIO] [JTWC-SPAC] [JTWC-SH]
<<- Previous TC | JTWC 1991-1992 Season | Next TC ->>

click for intensity scale information  Lat/long Grid: Show Hide

 Date Labels: Show Hide

Joint Typhoon Warning Centre Cyclone Data

Name: FARIDA

23 Feb 1992 18:00 UTC to 03 Mar 1992 18:00 UTC

    date/time    lat    long     hPa   cat  kts
1992-02-23 18   11.8    83.8                  25          
1992-02-24 00   12.2    84.5                  25          
1992-02-24 06   12.6    83.9                  25          
1992-02-24 12   12.9    83.4                  30          
1992-02-24 18   13.3    82.9                  30          
1992-02-25 00   13.7    82.5                  30          
1992-02-25 06   14.1    82.1                  35          
1992-02-25 12   14.6    81.7                  35          
1992-02-25 18   15.0    81.4            1     40          
1992-02-26 00   15.5    81.1            1     45          
1992-02-26 06   15.9    80.8            2     55          
1992-02-26 12   16.3    80.5            2     60          
1992-02-26 18   16.7    80.2            2     65          
1992-02-27 00   17.1    79.8            3     75          
1992-02-27 06   17.5    79.3            3     80          
1992-02-27 12   17.8    78.7            3     80          
1992-02-27 18   18.0    78.0            3     85          
1992-02-28 00   18.1    77.4            3     95          
1992-02-28 06   18.3    76.8            4    105          
1992-02-28 12   18.6    76.2            4    115          
1992-02-28 18   18.9    75.7            4    120          
1992-02-29 00   19.2    75.1            4    120          
1992-02-29 06   19.5    74.7            4    120          
1992-02-29 12   19.9    74.2            4    115          
1992-02-29 18   20.4    73.7            4    115          
1992-03-01 00   20.9    73.1            4    110          
1992-03-01 06   21.5    72.3            4    110          
1992-03-01 12   22.0    71.4            4    105          
1992-03-01 18   22.4    70.4            4    100          
1992-03-02 00   22.8    69.2            3     90          
1992-03-02 06   23.2    68.0            3     80          
1992-03-02 12   23.7    66.8            2     70          
1992-03-02 18   24.3    65.5            2     65          
1992-03-03 00   25.1    64.3            2     55          
1992-03-03 06   26.1    63.2            1     50          
1992-03-03 12   27.2    62.1            1     40          
1992-03-03 18   28.3    61.0                  30          
Winds are 1-min average.

Tropical cyclone tracks developed by Michael Bath using data from the Joint Typhoon Warning Centre Best Tracks and Google Maps.


[Australian Severe Weather index] [Copyright Notice] [Email Contacts] [Search This Site] [Privacy Policy]
Document: tropical_cyclone_farida.htm Updated: 18 September 2016